This is the latest recevied weather packets stored in our database for station/object WB4MOZ-3. If no packets are shown the sender has not sent any weather packets the latest 1 day(s).
| Time | Temp. | Humidity | Pressure | Rain* | Wind** | Luminosity | Snow |
|---|---|---|---|---|---|---|---|
| 1778092179 | 34.44° C | 44% | 1014.7 hPa | 0 mm | - | - | - |
| 1778090980 | 34.44° C | 42% | 1014.8 hPa | 0 mm | - | - | - |
| 1778090379 | 34.44° C | 45% | 1014.9 hPa | 0 mm | - | - | - |
| 1778089179 | 34.44° C | 44% | 1015.2 hPa | 0 mm | - | - | - |
| 1778088279 | 33.89° C | 46% | 1015.2 hPa | 0 mm | - | - | - |
| 1778084979 | 33.89° C | 50% | 1015.6 hPa | 0 mm | - | - | - |
| 1778083179 | 33.89° C | 53% | 1015.9 hPa | 0 mm | - | - | - |
| 1778082579 | 33.89° C | 53% | 1016 hPa | 0 mm | - | - | - |
| 1778081979 | 33.33° C | 52% | 1015.8 hPa | 0 mm | - | - | - |
| 1778079579 | 31.67° C | 59% | 1015.9 hPa | 0 mm | - | - | - |
| 1778079279 | 31.67° C | 58% | 1015.9 hPa | 0 mm | - | - | - |
| 1778078079 | 31.67° C | 62% | 1015.8 hPa | 0 mm | - | - | - |
| 1778075679 | 30° C | 65% | 1015.6 hPa | 0 mm | - | - | - |
| 1778074878 | 29.44° C | 67% | 1015.6 hPa | 0 mm | - | - | - |
| 1778074779 | 29.44° C | 67% | 1015.6 hPa | 0 mm | - | - | - |
| 1778074178 | 28.89° C | 72% | 1015.5 hPa | 0 mm | - | - | - |
| 1778073879 | 28.89° C | 72% | 1015.5 hPa | 0 mm | - | - | - |
| 1778073686 | 28.89° C | 74% | 1015.6 hPa | 0 mm | - | - | - |
| 1778073404 | 28.33° C | 75% | 1015.5 hPa | 0 mm | - | - | - |
| 1778073310 | 28.33° C | 75% | 1015.5 hPa | 0 mm | - | - | - |
| 1778072379 | 27.22° C | 81% | 1015.3 hPa | 0 mm | - | - | - |
| 1778072292 | 27.22° C | 87% | 1015.3 hPa | 0 mm | - | - | - |
| 1778071778 | 26.67° C | 91% | 1015.3 hPa | 0 mm | - | - | - |
| 1778070578 | 25.56° C | 98% | 1015.4 hPa | 0 mm | - | - | - |
| 1778070224 | 25.56° C | 99% | 1015.5 hPa | 0 mm | - | - | - |
* Rain latest hour (hover to see other rain measurements)
** Current wind speed in m/s (hover to see current wind gust speed)